Aérodrome :
LOGIN :

S'inscrire | Disclaimer

   EN    FR    IT 

 










Légende :    VFR   VFR Marginal   IFR   IFR Intensif   IFR Très Intensif
Visi : 
Plafond : 
>= 8 km
>= 3000ft
5 à 8 km
1000 à 3000 ft
1500m à 5 km
500 à 1000 ft
800 à 1500m
200 à 500 ft
< 800m
< 200 ft
Symboles :   Orages  Brouillard  Fortes neiges  Fortes précipitations  Vent > 20 kt
SIGMETs :   Divers  Orages  Givrage  Turbulence  Onde Orograph.  Cendres Volcan.







- Altitude de l'aérodrome : 135 ft
- Code IATA : EDI
- Voir les cartes d'approche


EGPH - Edinburgh

DERNIER METAR :
  • 240950Z 13007KT 9999 FEW047 15/10 Q1017

METARs EXPIRÉS :
  • 240920Z 11006KT 080V150 CAVOK 15/10 Q1016
  • 240850Z 13008KT 9999 FEW045 14/10 Q1016
  • 240820Z 14008KT 130V190 9999 FEW040 14/10 Q1016
  • 240750Z 14008KT 9999 FEW040 14/09 Q1016
  • 240720Z 14008KT 9999 FEW045 14/09 Q1016

TAF TAF EGPH
Valide du 24 à 06h jusqu'au 25 à 06h UTC


240500Z 2406/2506 12006KT 9999 SCT025
PROB30
TEMPO 2412/2421 6000 -RADZ
TEMPO 2421/2506 4000 RADZ
TEMPO 2503/2506 BKN010
ATIS : +44 131 339 2823
Pas de NOTAMs connus pour ce terrain.



MET'MAP, la Météo Aéronautique d'un coup d'oeil ! - Copyright ORBIFLY Décembre 2007 - Disclaimer

ORBIFLY MET'MAP TEAM :

Programmation & Développement : Alexandra Zaïnal
Conception & Développement : Baudouin d'Aumeries
Co-Programmation & Développement : Marc-Olivier Méhu
Soutien technique & logistique : Manuel Goepfert

Contact : metmap@orbifly.com




SOURCES & CREDITS :

   NOAA